sensor_id;sensor_type;location;lat;lon;timestamp;temperature;humidity
63435;DHT22;68814;50.872;5.306;2023-05-07T00:01:37;13.60;94.30
63435;DHT22;68814;50.872;5.306;2023-05-07T00:04:03;13.60;94.40
63435;DHT22;68814;50.872;5.306;2023-05-07T00:06:29;13.60;94.90
63435;DHT22;68814;50.872;5.306;2023-05-07T00:08:56;13.60;94.80
63435;DHT22;68814;50.872;5.306;2023-05-07T00:11:22;13.60;94.60
63435;DHT22;68814;50.872;5.306;2023-05-07T00:13:48;13.70;94.80
63435;DHT22;68814;50.872;5.306;2023-05-07T00:16:14;13.70;94.50
63435;DHT22;68814;50.872;5.306;2023-05-07T00:18:39;13.80;94.60
63435;DHT22;68814;50.872;5.306;2023-05-07T00:21:05;13.70;94.50
63435;DHT22;68814;50.872;5.306;2023-05-07T00:23:31;13.80;94.40
63435;DHT22;68814;50.872;5.306;2023-05-07T00:25:56;13.80;94.60
63435;DHT22;68814;50.872;5.306;2023-05-07T00:28:22;13.80;94.90
63435;DHT22;68814;50.872;5.306;2023-05-07T00:30:48;13.80;94.70
63435;DHT22;68814;50.872;5.306;2023-05-07T00:33:13;13.90;94.90
63435;DHT22;68814;50.872;5.306;2023-05-07T00:35:39;13.90;94.90
63435;DHT22;68814;50.872;5.306;2023-05-07T00:38:04;13.90;94.70
63435;DHT22;68814;50.872;5.306;2023-05-07T00:40:30;13.90;95.20
63435;DHT22;68814;50.872;5.306;2023-05-07T00:42:56;13.90;95.10
63435;DHT22;68814;50.872;5.306;2023-05-07T00:45:26;13.90;95.00
63435;DHT22;68814;50.872;5.306;2023-05-07T00:47:54;13.90;95.10
63435;DHT22;68814;50.872;5.306;2023-05-07T00:50:20;13.90;95.10
63435;DHT22;68814;50.872;5.306;2023-05-07T00:52:46;13.90;94.80
63435;DHT22;68814;50.872;5.306;2023-05-07T00:55:12;13.90;94.80
63435;DHT22;68814;50.872;5.306;2023-05-07T00:57:41;13.90;94.80
63435;DHT22;68814;50.872;5.306;2023-05-07T01:00:09;13.90;95.00
63435;DHT22;68814;50.872;5.306;2023-05-07T01:02:35;13.90;95.10
63435;DHT22;68814;50.872;5.306;2023-05-07T01:05:03;13.90;95.10
63435;DHT22;68814;50.872;5.306;2023-05-07T01:07:31;13.90;95.10
63435;DHT22;68814;50.872;5.306;2023-05-07T01:09:58;14.00;94.70
63435;DHT22;68814;50.872;5.306;2023-05-07T01:12:24;14.00;94.70
63435;DHT22;68814;50.872;5.306;2023-05-07T01:14:50;14.00;94.70
63435;DHT22;68814;50.872;5.306;2023-05-07T01:17:16;14.00;94.60
63435;DHT22;68814;50.872;5.306;2023-05-07T01:19:42;14.00;94.70
63435;DHT22;68814;50.872;5.306;2023-05-07T01:22:09;14.00;95.00
63435;DHT22;68814;50.872;5.306;2023-05-07T01:24:37;14.00;94.90
63435;DHT22;68814;50.872;5.306;2023-05-07T01:27:03;13.90;94.60
63435;DHT22;68814;50.872;5.306;2023-05-07T01:29:29;14.00;94.80
63435;DHT22;68814;50.872;5.306;2023-05-07T01:31:59;14.00;94.80
63435;DHT22;68814;50.872;5.306;2023-05-07T01:34:26;13.90;94.80
63435;DHT22;68814;50.872;5.306;2023-05-07T01:36:54;13.90;94.80
63435;DHT22;68814;50.872;5.306;2023-05-07T01:39:23;13.90;94.60
63435;DHT22;68814;50.872;5.306;2023-05-07T01:41:50;13.90;94.70
63435;DHT22;68814;50.872;5.306;2023-05-07T01:44:16;13.90;94.70
63435;DHT22;68814;50.872;5.306;2023-05-07T01:46:43;13.80;94.40
63435;DHT22;68814;50.872;5.306;2023-05-07T01:49:10;13.80;94.60
63435;DHT22;68814;50.872;5.306;2023-05-07T01:51:36;13.80;94.40
63435;DHT22;68814;50.872;5.306;2023-05-07T01:54:02;13.80;94.40
63435;DHT22;68814;50.872;5.306;2023-05-07T01:56:27;13.80;94.70
63435;DHT22;68814;50.872;5.306;2023-05-07T01:58:53;13.80;94.40
63435;DHT22;68814;50.872;5.306;2023-05-07T02:01:19;13.80;94.20
63435;DHT22;68814;50.872;5.306;2023-05-07T02:03:44;13.70;94.10
63435;DHT22;68814;50.872;5.306;2023-05-07T02:06:10;13.70;94.50
63435;DHT22;68814;50.872;5.306;2023-05-07T02:08:36;13.70;94.50
63435;DHT22;68814;50.872;5.306;2023-05-07T02:11:01;13.70;94.60
63435;DHT22;68814;50.872;5.306;2023-05-07T02:13:32;13.70;94.70
63435;DHT22;68814;50.872;5.306;2023-05-07T02:15:58;13.70;94.90
63435;DHT22;68814;50.872;5.306;2023-05-07T02:18:24;13.80;94.90
63435;DHT22;68814;50.872;5.306;2023-05-07T02:20:49;13.70;94.90
63435;DHT22;68814;50.872;5.306;2023-05-07T02:23:15;13.70;94.70
63435;DHT22;68814;50.872;5.306;2023-05-07T02:25:41;13.80;94.80
63435;DHT22;68814;50.872;5.306;2023-05-07T02:28:06;13.80;94.70
63435;DHT22;68814;50.872;5.306;2023-05-07T02:30:32;13.80;94.60
63435;DHT22;68814;50.872;5.306;2023-05-07T02:32:58;13.80;94.60
63435;DHT22;68814;50.872;5.306;2023-05-07T02:35:25;13.80;94.60
63435;DHT22;68814;50.872;5.306;2023-05-07T02:37:50;13.80;94.80
63435;DHT22;68814;50.872;5.306;2023-05-07T02:40:16;13.80;95.00
63435;DHT22;68814;50.872;5.306;2023-05-07T02:42:42;13.80;94.80
63435;DHT22;68814;50.872;5.306;2023-05-07T02:45:08;13.80;94.70
63435;DHT22;68814;50.872;5.306;2023-05-07T02:47:34;13.80;94.70
63435;DHT22;68814;50.872;5.306;2023-05-07T02:49:59;13.80;94.90
63435;DHT22;68814;50.872;5.306;2023-05-07T02:52:25;13.80;94.70
63435;DHT22;68814;50.872;5.306;2023-05-07T02:54:50;13.80;94.60
63435;DHT22;68814;50.872;5.306;2023-05-07T02:57:16;13.80;94.60
63435;DHT22;68814;50.872;5.306;2023-05-07T02:59:42;13.80;94.80
63435;DHT22;68814;50.872;5.306;2023-05-07T03:02:08;13.90;94.90
63435;DHT22;68814;50.872;5.306;2023-05-07T03:04:33;13.80;94.70
63435;DHT22;68814;50.872;5.306;2023-05-07T03:06:59;13.80;94.80
63435;DHT22;68814;50.872;5.306;2023-05-07T03:09:25;13.80;95.20
63435;DHT22;68814;50.872;5.306;2023-05-07T03:11:51;13.80;95.30
63435;DHT22;68814;50.872;5.306;2023-05-07T03:14:17;13.80;95.30
63435;DHT22;68814;50.872;5.306;2023-05-07T03:16:42;13.80;95.20
63435;DHT22;68814;50.872;5.306;2023-05-07T03:19:08;13.80;95.10
63435;DHT22;68814;50.872;5.306;2023-05-07T03:21:34;13.80;95.00
63435;DHT22;68814;50.872;5.306;2023-05-07T03:24:00;13.80;94.80
63435;DHT22;68814;50.872;5.306;2023-05-07T03:26:26;13.80;95.00
63435;DHT22;68814;50.872;5.306;2023-05-07T03:28:51;13.80;95.20
63435;DHT22;68814;50.872;5.306;2023-05-07T03:31:20;13.80;95.10
63435;DHT22;68814;50.872;5.306;2023-05-07T03:33:56;13.80;95.20
63435;DHT22;68814;50.872;5.306;2023-05-07T03:36:23;13.80;95.20
63435;DHT22;68814;50.872;5.306;2023-05-07T03:38:49;13.80;95.30
63435;DHT22;68814;50.872;5.306;2023-05-07T03:41:15;13.80;95.20
63435;DHT22;68814;50.872;5.306;2023-05-07T03:43:41;13.80;95.10
63435;DHT22;68814;50.872;5.306;2023-05-07T03:46:07;13.80;95.10
63435;DHT22;68814;50.872;5.306;2023-05-07T03:48:33;13.80;95.20
63435;DHT22;68814;50.872;5.306;2023-05-07T03:50:59;13.80;95.20
63435;DHT22;68814;50.872;5.306;2023-05-07T03:53:24;13.80;95.20
63435;DHT22;68814;50.872;5.306;2023-05-07T03:55:50;13.80;95.40
63435;DHT22;68814;50.872;5.306;2023-05-07T03:58:16;13.80;95.50
63435;DHT22;68814;50.872;5.306;2023-05-07T04:00:42;13.80;95.30
63435;DHT22;68814;50.872;5.306;2023-05-07T04:03:07;13.80;95.00
63435;DHT22;68814;50.872;5.306;2023-05-07T04:05:33;13.80;95.10
63435;DHT22;68814;50.872;5.306;2023-05-07T04:07:59;13.90;95.30
63435;DHT22;68814;50.872;5.306;2023-05-07T04:10:25;13.90;95.00
63435;DHT22;68814;50.872;5.306;2023-05-07T04:12:51;13.90;95.10
63435;DHT22;68814;50.872;5.306;2023-05-07T04:15:17;13.90;95.10
63435;DHT22;68814;50.872;5.306;2023-05-07T04:17:43;13.90;95.30
63435;DHT22;68814;50.872;5.306;2023-05-07T04:20:16;13.90;95.30
63435;DHT22;68814;50.872;5.306;2023-05-07T04:22:42;13.90;95.20
63435;DHT22;68814;50.872;5.306;2023-05-07T04:25:08;13.90;95.20
63435;DHT22;68814;50.872;5.306;2023-05-07T04:27:37;13.90;95.20
63435;DHT22;68814;50.872;5.306;2023-05-07T04:30:03;13.90;95.10
63435;DHT22;68814;50.872;5.306;2023-05-07T04:32:29;14.00;95.00
63435;DHT22;68814;50.872;5.306;2023-05-07T04:34:56;14.00;94.80
63435;DHT22;68814;50.872;5.306;2023-05-07T04:37:22;14.00;95.00
63435;DHT22;68814;50.872;5.306;2023-05-07T04:39:48;14.00;95.10
63435;DHT22;68814;50.872;5.306;2023-05-07T04:42:17;14.00;95.00
63435;DHT22;68814;50.872;5.306;2023-05-07T04:44:44;14.10;95.00
63435;DHT22;68814;50.872;5.306;2023-05-07T04:47:09;14.10;95.20
63435;DHT22;68814;50.872;5.306;2023-05-07T04:49:36;14.10;95.10
63435;DHT22;68814;50.872;5.306;2023-05-07T04:52:01;14.10;94.90
63435;DHT22;68814;50.872;5.306;2023-05-07T04:54:28;14.20;95.00
63435;DHT22;68814;50.872;5.306;2023-05-07T04:56:54;14.20;95.10
63435;DHT22;68814;50.872;5.306;2023-05-07T04:59:20;14.20;95.10
63435;DHT22;68814;50.872;5.306;2023-05-07T05:01:45;14.30;95.10
63435;DHT22;68814;50.872;5.306;2023-05-07T05:04:11;14.40;95.00
63435;DHT22;68814;50.872;5.306;2023-05-07T05:06:45;14.40;94.90
63435;DHT22;68814;50.872;5.306;2023-05-07T05:09:11;14.40;94.80
63435;DHT22;68814;50.872;5.306;2023-05-07T05:11:37;14.50;94.70
63435;DHT22;68814;50.872;5.306;2023-05-07T05:14:02;14.60;94.60
63435;DHT22;68814;50.872;5.306;2023-05-07T05:16:28;14.60;94.40
63435;DHT22;68814;50.872;5.306;2023-05-07T05:18:54;14.70;94.60
63435;DHT22;68814;50.872;5.306;2023-05-07T05:21:20;14.70;94.60
63435;DHT22;68814;50.872;5.306;2023-05-07T05:23:46;14.70;94.50
63435;DHT22;68814;50.872;5.306;2023-05-07T05:26:11;14.70;94.30
63435;DHT22;68814;50.872;5.306;2023-05-07T05:28:40;14.80;94.20
63435;DHT22;68814;50.872;5.306;2023-05-07T05:31:06;14.80;94.10
63435;DHT22;68814;50.872;5.306;2023-05-07T05:33:33;14.90;94.20
63435;DHT22;68814;50.872;5.306;2023-05-07T05:35:58;15.00;94.00
63435;DHT22;68814;50.872;5.306;2023-05-07T05:38:24;15.00;93.70
63435;DHT22;68814;50.872;5.306;2023-05-07T05:40:51;15.10;93.80
63435;DHT22;68814;50.872;5.306;2023-05-07T05:43:16;15.20;93.80
63435;DHT22;68814;50.872;5.306;2023-05-07T05:45:42;15.30;93.80
63435;DHT22;68814;50.872;5.306;2023-05-07T05:48:08;15.40;93.70
63435;DHT22;68814;50.872;5.306;2023-05-07T05:50:34;15.40;93.60
63435;DHT22;68814;50.872;5.306;2023-05-07T05:53:02;15.50;93.40
63435;DHT22;68814;50.872;5.306;2023-05-07T05:55:28;15.60;93.30
63435;DHT22;68814;50.872;5.306;2023-05-07T05:57:54;15.70;93.20
63435;DHT22;68814;50.872;5.306;2023-05-07T06:00:20;15.70;93.00
63435;DHT22;68814;50.872;5.306;2023-05-07T06:02:48;15.80;92.70
63435;DHT22;68814;50.872;5.306;2023-05-07T06:05:14;15.90;92.70
63435;DHT22;68814;50.872;5.306;2023-05-07T06:07:40;16.00;92.70
63435;DHT22;68814;50.872;5.306;2023-05-07T06:10:06;16.00;92.70
63435;DHT22;68814;50.872;5.306;2023-05-07T06:12:32;16.20;92.50
63435;DHT22;68814;50.872;5.306;2023-05-07T06:14:58;16.30;92.30
63435;DHT22;68814;50.872;5.306;2023-05-07T06:17:23;16.40;92.20
63435;DHT22;68814;50.872;5.306;2023-05-07T06:19:49;16.50;92.10
63435;DHT22;68814;50.872;5.306;2023-05-07T06:22:15;16.60;91.90
63435;DHT22;68814;50.872;5.306;2023-05-07T06:24:40;16.70;92.00
63435;DHT22;68814;50.872;5.306;2023-05-07T06:27:06;16.90;92.00
63435;DHT22;68814;50.872;5.306;2023-05-07T06:29:32;17.00;91.80
63435;DHT22;68814;50.872;5.306;2023-05-07T06:32:19;17.20;91.60
63435;DHT22;68814;50.872;5.306;2023-05-07T06:34:44;17.30;91.40
63435;DHT22;68814;50.872;5.306;2023-05-07T06:37:10;17.40;91.20
63435;DHT22;68814;50.872;5.306;2023-05-07T06:39:36;17.50;91.10
63435;DHT22;68814;50.872;5.306;2023-05-07T06:42:01;17.50;90.60
63435;DHT22;68814;50.872;5.306;2023-05-07T06:44:27;17.60;90.80
63435;DHT22;68814;50.872;5.306;2023-05-07T06:46:53;17.70;90.80
63435;DHT22;68814;50.872;5.306;2023-05-07T06:49:19;17.70;90.30
63435;DHT22;68814;50.872;5.306;2023-05-07T06:51:44;17.70;90.30
63435;DHT22;68814;50.872;5.306;2023-05-07T06:54:10;17.70;89.80
63435;DHT22;68814;50.872;5.306;2023-05-07T06:56:36;17.80;89.60
63435;DHT22;68814;50.872;5.306;2023-05-07T06:59:02;17.70;89.00
63435;DHT22;68814;50.872;5.306;2023-05-07T07:01:28;17.80;89.10
63435;DHT22;68814;50.872;5.306;2023-05-07T07:03:54;17.90;89.90
63435;DHT22;68814;50.872;5.306;2023-05-07T07:06:20;18.00;88.70
63435;DHT22;68814;50.872;5.306;2023-05-07T07:08:46;18.10;87.50
63435;DHT22;68814;50.872;5.306;2023-05-07T07:11:11;18.20;87.90
63435;DHT22;68814;50.872;5.306;2023-05-07T07:13:37;18.40;87.90
63435;DHT22;68814;50.872;5.306;2023-05-07T07:16:03;18.60;86.00
63435;DHT22;68814;50.872;5.306;2023-05-07T07:18:29;18.70;86.70
63435;DHT22;68814;50.872;5.306;2023-05-07T07:20:55;18.90;84.60
63435;DHT22;68814;50.872;5.306;2023-05-07T07:23:20;18.90;81.90
63435;DHT22;68814;50.872;5.306;2023-05-07T07:25:46;18.80;81.30
63435;DHT22;68814;50.872;5.306;2023-05-07T07:28:12;18.90;82.70
63435;DHT22;68814;50.872;5.306;2023-05-07T07:30:39;18.90;82.20
63435;DHT22;68814;50.872;5.306;2023-05-07T07:33:05;18.90;81.80
63435;DHT22;68814;50.872;5.306;2023-05-07T07:35:33;18.90;83.50
63435;DHT22;68814;50.872;5.306;2023-05-07T07:37:59;19.10;82.80
63435;DHT22;68814;50.872;5.306;2023-05-07T07:40:25;19.30;84.40
63435;DHT22;68814;50.872;5.306;2023-05-07T07:42:54;19.60;84.10
63435;DHT22;68814;50.872;5.306;2023-05-07T07:45:20;19.70;79.80
63435;DHT22;68814;50.872;5.306;2023-05-07T07:47:46;19.90;79.30
63435;DHT22;68814;50.872;5.306;2023-05-07T07:50:12;20.00;77.50
63435;DHT22;68814;50.872;5.306;2023-05-07T07:52:37;20.10;75.80
63435;DHT22;68814;50.872;5.306;2023-05-07T07:55:04;20.00;77.50
63435;DHT22;68814;50.872;5.306;2023-05-07T07:57:30;20.20;79.60
63435;DHT22;68814;50.872;5.306;2023-05-07T07:59:55;20.40;75.90
63435;DHT22;68814;50.872;5.306;2023-05-07T08:02:21;20.70;74.00
63435;DHT22;68814;50.872;5.306;2023-05-07T08:04:47;20.60;73.60
63435;DHT22;68814;50.872;5.306;2023-05-07T08:07:13;20.70;74.50
63435;DHT22;68814;50.872;5.306;2023-05-07T08:09:39;20.70;74.40
63435;DHT22;68814;50.872;5.306;2023-05-07T08:12:06;20.60;73.10
63435;DHT22;68814;50.872;5.306;2023-05-07T08:14:32;20.70;75.80
63435;DHT22;68814;50.872;5.306;2023-05-07T08:16:58;21.00;73.30
63435;DHT22;68814;50.872;5.306;2023-05-07T08:19:24;21.20;71.40
63435;DHT22;68814;50.872;5.306;2023-05-07T08:21:49;21.10;69.30
63435;DHT22;68814;50.872;5.306;2023-05-07T08:24:16;21.00;68.10
63435;DHT22;68814;50.872;5.306;2023-05-07T08:26:43;20.90;69.10
63435;DHT22;68814;50.872;5.306;2023-05-07T08:29:12;20.70;70.70
63435;DHT22;68814;50.872;5.306;2023-05-07T08:31:38;20.70;71.70
63435;DHT22;68814;50.872;5.306;2023-05-07T08:34:06;20.80;70.30
63435;DHT22;68814;50.872;5.306;2023-05-07T08:36:32;21.00;70.30
63435;DHT22;68814;50.872;5.306;2023-05-07T08:38:58;21.10;70.50
63435;DHT22;68814;50.872;5.306;2023-05-07T08:41:24;21.20;67.60
63435;DHT22;68814;50.872;5.306;2023-05-07T08:43:50;21.10;68.50
63435;DHT22;68814;50.872;5.306;2023-05-07T08:46:21;21.10;68.40
63435;DHT22;68814;50.872;5.306;2023-05-07T08:48:53;21.20;69.20
63435;DHT22;68814;50.872;5.306;2023-05-07T08:51:20;21.30;69.40
63435;DHT22;68814;50.872;5.306;2023-05-07T08:53:47;21.50;67.10
63435;DHT22;68814;50.872;5.306;2023-05-07T08:56:16;21.50;67.30
63435;DHT22;68814;50.872;5.306;2023-05-07T08:58:44;21.40;66.60
63435;DHT22;68814;50.872;5.306;2023-05-07T09:01:14;21.50;68.30
63435;DHT22;68814;50.872;5.306;2023-05-07T09:03:43;21.60;67.80
63435;DHT22;68814;50.872;5.306;2023-05-07T09:06:09;21.50;67.70
63435;DHT22;68814;50.872;5.306;2023-05-07T09:08:35;21.20;67.60
63435;DHT22;68814;50.872;5.306;2023-05-07T09:11:02;21.30;69.20
63435;DHT22;68814;50.872;5.306;2023-05-07T09:13:28;21.30;69.40
63435;DHT22;68814;50.872;5.306;2023-05-07T09:15:55;21.30;68.90
63435;DHT22;68814;50.872;5.306;2023-05-07T09:18:21;21.20;69.20
63435;DHT22;68814;50.872;5.306;2023-05-07T09:20:47;21.30;70.30
63435;DHT22;68814;50.872;5.306;2023-05-07T09:23:12;21.50;69.20
63435;DHT22;68814;50.872;5.306;2023-05-07T09:25:39;21.60;68.50
63435;DHT22;68814;50.872;5.306;2023-05-07T09:28:05;21.70;69.40
63435;DHT22;68814;50.872;5.306;2023-05-07T09:30:36;21.80;69.80
63435;DHT22;68814;50.872;5.306;2023-05-07T09:33:05;21.80;68.10
63435;DHT22;68814;50.872;5.306;2023-05-07T09:35:31;21.50;68.20
63435;DHT22;68814;50.872;5.306;2023-05-07T09:38:00;21.30;68.40
63435;DHT22;68814;50.872;5.306;2023-05-07T09:40:29;21.30;69.40
63435;DHT22;68814;50.872;5.306;2023-05-07T09:42:55;21.30;69.30
63435;DHT22;68814;50.872;5.306;2023-05-07T09:45:28;21.20;71.00
63435;DHT22;68814;50.872;5.306;2023-05-07T09:47:55;21.20;69.20
63435;DHT22;68814;50.872;5.306;2023-05-07T09:50:26;21.00;69.30
63435;DHT22;68814;50.872;5.306;2023-05-07T09:52:55;21.00;69.70
63435;DHT22;68814;50.872;5.306;2023-05-07T09:55:21;20.90;71.40
63435;DHT22;68814;50.872;5.306;2023-05-07T09:57:50;20.80;70.30
63435;DHT22;68814;50.872;5.306;2023-05-07T10:00:19;20.70;70.70
63435;DHT22;68814;50.872;5.306;2023-05-07T10:02:49;20.60;70.50
63435;DHT22;68814;50.872;5.306;2023-05-07T10:05:18;20.60;70.70
63435;DHT22;68814;50.872;5.306;2023-05-07T10:07:44;20.50;71.60
63435;DHT22;68814;50.872;5.306;2023-05-07T10:10:10;20.40;72.50
63435;DHT22;68814;50.872;5.306;2023-05-07T10:12:36;20.40;72.80
63435;DHT22;68814;50.872;5.306;2023-05-07T10:15:08;20.30;73.50
63435;DHT22;68814;50.872;5.306;2023-05-07T10:17:37;20.20;74.00
63435;DHT22;68814;50.872;5.306;2023-05-07T10:20:06;20.20;74.00
63435;DHT22;68814;50.872;5.306;2023-05-07T10:22:44;20.20;74.20
63435;DHT22;68814;50.872;5.306;2023-05-07T10:25:18;20.20;75.30
63435;DHT22;68814;50.872;5.306;2023-05-07T10:27:46;20.20;75.90
63435;DHT22;68814;50.872;5.306;2023-05-07T10:30:31;20.10;75.10
63435;DHT22;68814;50.872;5.306;2023-05-07T10:33:03;20.00;74.90
63435;DHT22;68814;50.872;5.306;2023-05-07T10:35:36;20.00;75.20
63435;DHT22;68814;50.872;5.306;2023-05-07T10:38:03;19.90;75.20
63435;DHT22;68814;50.872;5.306;2023-05-07T10:40:31;19.90;75.90
63435;DHT22;68814;50.872;5.306;2023-05-07T10:43:00;19.90;76.90
63435;DHT22;68814;50.872;5.306;2023-05-07T10:45:27;19.80;76.50
63435;DHT22;68814;50.872;5.306;2023-05-07T10:50:35;19.60;78.80
63435;DHT22;68814;50.872;5.306;2023-05-07T10:53:21;19.50;79.10
63435;DHT22;68814;50.872;5.306;2023-05-07T10:55:51;19.30;82.10
63435;DHT22;68814;50.872;5.306;2023-05-07T10:58:30;19.30;83.50
63435;DHT22;68814;50.872;5.306;2023-05-07T11:01:00;19.30;83.50
63435;DHT22;68814;50.872;5.306;2023-05-07T11:03:27;19.20;84.60
63435;DHT22;68814;50.872;5.306;2023-05-07T11:06:13;19.20;85.00
63435;DHT22;68814;50.872;5.306;2023-05-07T11:08:58;19.10;84.80
63435;DHT22;68814;50.872;5.306;2023-05-07T11:11:46;19.20;85.70
63435;DHT22;68814;50.872;5.306;2023-05-07T11:17:07;19.00;86.30
63435;DHT22;68814;50.872;5.306;2023-05-07T11:19:53;18.90;86.80
63435;DHT22;68814;50.872;5.306;2023-05-07T11:25:04;18.80;88.90
63435;DHT22;68814;50.872;5.306;2023-05-07T11:27:31;18.80;87.40
63435;DHT22;68814;50.872;5.306;2023-05-07T11:29:57;18.80;86.80
63435;DHT22;68814;50.872;5.306;2023-05-07T11:32:29;18.80;88.70
63435;DHT22;68814;50.872;5.306;2023-05-07T11:34:57;18.90;88.00
63435;DHT22;68814;50.872;5.306;2023-05-07T11:37:24;18.80;88.40
63435;DHT22;68814;50.872;5.306;2023-05-07T11:39:50;18.80;88.00
63435;DHT22;68814;50.872;5.306;2023-05-07T11:42:32;18.80;87.50
63435;DHT22;68814;50.872;5.306;2023-05-07T11:44:58;18.80;88.40
63435;DHT22;68814;50.872;5.306;2023-05-07T11:47:24;18.70;89.00
63435;DHT22;68814;50.872;5.306;2023-05-07T11:49:54;18.70;88.80
63435;DHT22;68814;50.872;5.306;2023-05-07T11:52:23;18.60;87.60
63435;DHT22;68814;50.872;5.306;2023-05-07T11:54:54;18.50;87.90
63435;DHT22;68814;50.872;5.306;2023-05-07T11:57:24;18.50;90.00
63435;DHT22;68814;50.872;5.306;2023-05-07T11:59:57;18.50;89.20
63435;DHT22;68814;50.872;5.306;2023-05-07T12:02:24;18.60;87.80
63435;DHT22;68814;50.872;5.306;2023-05-07T12:04:53;18.60;88.60
63435;DHT22;68814;50.872;5.306;2023-05-07T12:07:20;18.60;88.90
63435;DHT22;68814;50.872;5.306;2023-05-07T12:09:46;18.60;88.60
63435;DHT22;68814;50.872;5.306;2023-05-07T12:12:13;18.60;88.60
63435;DHT22;68814;50.872;5.306;2023-05-07T12:14:45;18.60;88.50
63435;DHT22;68814;50.872;5.306;2023-05-07T12:17:13;18.70;89.80
63435;DHT22;68814;50.872;5.306;2023-05-07T12:19:41;18.70;88.30
63435;DHT22;68814;50.872;5.306;2023-05-07T12:22:08;18.70;87.60
63435;DHT22;68814;50.872;5.306;2023-05-07T12:24:47;18.70;87.70
63435;DHT22;68814;50.872;5.306;2023-05-07T12:27:14;18.70;89.00
63435;DHT22;68814;50.872;5.306;2023-05-07T12:29:47;18.80;86.70
63435;DHT22;68814;50.872;5.306;2023-05-07T12:32:15;18.80;88.30
63435;DHT22;68814;50.872;5.306;2023-05-07T12:34:41;19.00;88.80
63435;DHT22;68814;50.872;5.306;2023-05-07T12:37:07;19.00;89.10
63435;DHT22;68814;50.872;5.306;2023-05-07T12:39:32;19.00;87.20
63435;DHT22;68814;50.872;5.306;2023-05-07T12:41:59;19.10;87.60
63435;DHT22;68814;50.872;5.306;2023-05-07T12:44:29;19.10;88.20
63435;DHT22;68814;50.872;5.306;2023-05-07T12:46:56;19.10;87.20
63435;DHT22;68814;50.872;5.306;2023-05-07T12:49:22;19.10;89.00
63435;DHT22;68814;50.872;5.306;2023-05-07T12:51:48;19.20;87.80
63435;DHT22;68814;50.872;5.306;2023-05-07T12:54:30;19.30;86.80
63435;DHT22;68814;50.872;5.306;2023-05-07T12:57:05;19.30;86.90
63435;DHT22;68814;50.872;5.306;2023-05-07T12:59:39;19.40;85.10
63435;DHT22;68814;50.872;5.306;2023-05-07T13:02:05;19.30;85.10
63435;DHT22;68814;50.872;5.306;2023-05-07T13:04:31;19.30;83.90
63435;DHT22;68814;50.872;5.306;2023-05-07T13:06:57;19.30;85.50
63435;DHT22;68814;50.872;5.306;2023-05-07T13:09:23;19.20;85.00
63435;DHT22;68814;50.872;5.306;2023-05-07T13:11:49;19.20;83.60
63435;DHT22;68814;50.872;5.306;2023-05-07T13:14:15;19.20;83.40
63435;DHT22;68814;50.872;5.306;2023-05-07T13:16:41;19.30;83.50
63435;DHT22;68814;50.872;5.306;2023-05-07T13:19:06;19.10;84.10
63435;DHT22;68814;50.872;5.306;2023-05-07T13:21:32;19.10;84.30
63435;DHT22;68814;50.872;5.306;2023-05-07T13:23:58;19.20;84.40
63435;DHT22;68814;50.872;5.306;2023-05-07T13:26:29;19.30;86.30
63435;DHT22;68814;50.872;5.306;2023-05-07T13:28:56;19.40;84.50
63435;DHT22;68814;50.872;5.306;2023-05-07T13:32:04;19.50;84.30
63435;DHT22;68814;50.872;5.306;2023-05-07T13:34:16;19.60;83.50
63435;DHT22;68814;50.872;5.306;2023-05-07T13:36:51;19.60;82.70
63435;DHT22;68814;50.872;5.306;2023-05-07T13:39:17;19.60;83.00
63435;DHT22;68814;50.872;5.306;2023-05-07T13:41:49;19.70;83.00
63435;DHT22;68814;50.872;5.306;2023-05-07T13:44:20;19.80;81.80
63435;DHT22;68814;50.872;5.306;2023-05-07T13:46:49;19.90;82.20
63435;DHT22;68814;50.872;5.306;2023-05-07T13:49:36;20.00;80.80
63435;DHT22;68814;50.872;5.306;2023-05-07T13:52:22;20.00;80.50
63435;DHT22;68814;50.872;5.306;2023-05-07T13:54:48;20.00;80.10
63435;DHT22;68814;50.872;5.306;2023-05-07T13:57:16;20.00;79.90
63435;DHT22;68814;50.872;5.306;2023-05-07T13:59:45;20.10;78.90
63435;DHT22;68814;50.872;5.306;2023-05-07T14:02:11;20.20;80.10
63435;DHT22;68814;50.872;5.306;2023-05-07T14:04:46;20.30;81.70
63435;DHT22;68814;50.872;5.306;2023-05-07T14:07:27;20.40;80.70
63435;DHT22;68814;50.872;5.306;2023-05-07T14:10:03;20.40;79.70
63435;DHT22;68814;50.872;5.306;2023-05-07T14:12:29;20.40;80.60
63435;DHT22;68814;50.872;5.306;2023-05-07T14:14:57;20.50;80.40
63435;DHT22;68814;50.872;5.306;2023-05-07T14:17:23;20.50;79.80
63435;DHT22;68814;50.872;5.306;2023-05-07T14:19:54;20.50;81.20
63435;DHT22;68814;50.872;5.306;2023-05-07T14:22:24;20.50;80.20
63435;DHT22;68814;50.872;5.306;2023-05-07T14:24:50;20.50;78.20
63435;DHT22;68814;50.872;5.306;2023-05-07T14:27:37;20.40;79.60
63435;DHT22;68814;50.872;5.306;2023-05-07T14:30:02;20.50;81.60
63435;DHT22;68814;50.872;5.306;2023-05-07T14:32:29;20.70;78.90
63435;DHT22;68814;50.872;5.306;2023-05-07T14:34:55;20.70;78.10
63435;DHT22;68814;50.872;5.306;2023-05-07T14:37:20;20.70;78.00
63435;DHT22;68814;50.872;5.306;2023-05-07T14:39:46;20.60;78.10
63435;DHT22;68814;50.872;5.306;2023-05-07T14:42:12;20.50;78.20
63435;DHT22;68814;50.872;5.306;2023-05-07T14:44:38;20.30;79.60
63435;DHT22;68814;50.872;5.306;2023-05-07T14:47:05;20.20;79.60
63435;DHT22;68814;50.872;5.306;2023-05-07T14:49:31;20.20;78.30
63435;DHT22;68814;50.872;5.306;2023-05-07T14:51:57;20.00;79.30
63435;DHT22;68814;50.872;5.306;2023-05-07T14:54:25;20.10;80.00
63435;DHT22;68814;50.872;5.306;2023-05-07T14:56:51;20.10;81.40
63435;DHT22;68814;50.872;5.306;2023-05-07T14:59:17;20.10;81.20
63435;DHT22;68814;50.872;5.306;2023-05-07T15:01:46;20.10;81.70
63435;DHT22;68814;50.872;5.306;2023-05-07T15:04:12;20.10;83.50
63435;DHT22;68814;50.872;5.306;2023-05-07T15:06:38;20.20;79.70
63435;DHT22;68814;50.872;5.306;2023-05-07T15:09:04;20.20;79.70
63435;DHT22;68814;50.872;5.306;2023-05-07T15:11:29;20.10;78.50
63435;DHT22;68814;50.872;5.306;2023-05-07T15:13:55;20.10;79.70
63435;DHT22;68814;50.872;5.306;2023-05-07T15:16:21;20.00;80.20
63435;DHT22;68814;50.872;5.306;2023-05-07T15:18:48;20.00;79.60
63435;DHT22;68814;50.872;5.306;2023-05-07T15:21:13;19.90;79.90
63435;DHT22;68814;50.872;5.306;2023-05-07T15:23:39;20.00;80.60
63435;DHT22;68814;50.872;5.306;2023-05-07T15:26:09;20.00;82.00
63435;DHT22;68814;50.872;5.306;2023-05-07T15:28:35;20.10;79.30
63435;DHT22;68814;50.872;5.306;2023-05-07T15:31:04;20.20;78.70
63435;DHT22;68814;50.872;5.306;2023-05-07T15:33:31;20.20;78.70
63435;DHT22;68814;50.872;5.306;2023-05-07T15:35:59;20.30;78.00
63435;DHT22;68814;50.872;5.306;2023-05-07T15:38:26;20.30;77.30
63435;DHT22;68814;50.872;5.306;2023-05-07T15:40:52;20.20;76.40